createdAt,value
2019-02-19T00:02:49.924Z,81.71
2019-02-19T00:05:41.046Z,82.69
2019-02-19T00:08:31.297Z,82.89
2019-02-19T00:11:21.578Z,83.00
2019-02-19T00:14:12.087Z,82.00
2019-02-19T00:17:02.294Z,80.52
2019-02-19T00:19:52.781Z,79.55
2019-02-19T00:22:44.175Z,78.92
2019-02-19T00:25:34.998Z,79.00
2019-02-19T00:28:25.383Z,79.43
2019-02-19T00:31:15.374Z,79.56
2019-02-19T00:34:05.672Z,79.40
2019-02-19T00:36:56.154Z,79.57
2019-02-19T00:39:46.562Z,79.55
2019-02-19T00:42:36.866Z,79.40
2019-02-19T00:45:27.097Z,79.40
2019-02-19T00:48:17.689Z,79.37
2019-02-19T00:51:07.850Z,78.56
2019-02-19T00:53:58.274Z,78.60
2019-02-19T00:56:48.333Z,78.92
2019-02-19T00:59:41.153Z,78.90
2019-02-19T01:02:31.464Z,78.91
2019-02-19T01:05:21.747Z,80.54
2019-02-19T01:08:12.194Z,82.22
2019-02-19T01:11:02.571Z,82.85
2019-02-19T01:13:54.189Z,83.77
2019-02-19T01:16:44.426Z,84.65
2019-02-19T01:19:34.790Z,85.80
2019-02-19T01:22:25.130Z,86.08
2019-02-19T01:25:15.478Z,87.02
2019-02-19T01:28:05.548Z,87.37
2019-02-19T01:30:55.930Z,87.27
2019-02-19T01:33:46.262Z,89.32
2019-02-19T01:36:36.442Z,91.99
2019-02-19T01:39:26.571Z,92.58
2019-02-19T01:42:16.852Z,93.75
2019-02-19T01:45:08.400Z,94.04
2019-02-19T01:47:58.340Z,94.11
2019-02-19T01:50:48.681Z,93.89
2019-02-19T01:53:38.948Z,93.95
2019-02-19T01:56:29.435Z,94.34
2019-02-19T01:59:19.861Z,95.24
2019-02-19T02:02:10.232Z,96.58
2019-02-19T02:05:00.545Z,99.29
2019-02-19T02:07:50.917Z,100.00
2019-02-19T02:10:40.837Z,100.00
2019-02-19T02:13:31.217Z,100.00
2019-02-19T02:16:21.521Z,100.00
2019-02-19T02:19:11.827Z,100.00
2019-02-19T02:22:02.106Z,100.00
2019-02-19T02:24:52.576Z,100.00
2019-02-19T02:27:43.142Z,100.00
2019-02-19T02:30:33.610Z,100.00
2019-02-19T02:33:25.008Z,100.00
2019-02-19T02:36:15.133Z,100.00
2019-02-19T02:39:06.629Z,100.00
2019-02-19T02:41:56.663Z,100.00
2019-02-19T02:44:46.936Z,100.00
2019-02-19T02:47:37.307Z,100.00
2019-02-19T02:50:27.316Z,100.00
2019-02-19T02:53:17.515Z,100.00
2019-02-19T02:56:08.994Z,100.00
2019-02-19T02:58:59.220Z,100.00
2019-02-19T03:01:49.788Z,100.00
2019-02-19T03:04:40.279Z,100.00
2019-02-19T03:07:49.221Z,100.00
2019-02-19T03:10:39.188Z,100.00
2019-02-19T03:13:29.175Z,100.00
2019-02-19T03:16:19.500Z,100.00
2019-02-19T03:19:09.855Z,100.00
2019-02-19T03:22:00.048Z,100.00
2019-02-19T03:24:50.448Z,100.00
2019-02-19T03:27:40.828Z,100.00
2019-02-19T03:30:30.868Z,100.00
2019-02-19T03:33:21.263Z,100.00
2019-02-19T03:36:11.741Z,100.00
2019-02-19T03:39:02.265Z,100.00
2019-02-19T03:41:52.565Z,100.00
2019-02-19T03:44:42.835Z,100.00
2019-02-19T03:47:33.096Z,100.00
2019-02-19T03:50:23.490Z,100.00
2019-02-19T03:53:13.715Z,100.00
2019-02-19T03:56:03.933Z,100.00
2019-02-19T03:58:54.146Z,100.00
2019-02-19T04:01:44.531Z,100.00
2019-02-19T04:04:34.822Z,100.00
2019-02-19T04:07:25.330Z,100.00
2019-02-19T04:10:15.561Z,100.00
2019-02-19T04:13:05.871Z,100.00
2019-02-19T04:15:57.313Z,100.00
2019-02-19T04:18:47.602Z,100.00
2019-02-19T04:21:37.879Z,100.00
2019-02-19T04:24:28.205Z,100.00
2019-02-19T04:27:18.240Z,100.00
2019-02-19T04:30:08.603Z,97.69
2019-02-19T04:32:59.038Z,96.63
2019-02-19T04:35:49.304Z,95.82
2019-02-19T04:38:39.581Z,94.62
2019-02-19T04:41:29.771Z,93.23
2019-02-19T04:44:19.785Z,92.52
2019-02-19T04:47:10.244Z,93.68
2019-02-19T04:50:00.494Z,96.34
2019-02-19T04:52:50.783Z,94.11
2019-02-19T04:55:42.103Z,93.96
2019-02-19T04:58:35.179Z,95.43
2019-02-19T05:01:25.312Z,97.68
2019-02-19T05:04:15.646Z,98.77
2019-02-19T05:07:05.995Z,100.00
2019-02-19T05:09:56.546Z,100.00
2019-02-19T05:12:47.043Z,100.00
2019-02-19T05:15:37.352Z,100.00
2019-02-19T05:18:27.686Z,100.00
2019-02-19T05:21:18.061Z,100.00
2019-02-19T05:24:08.312Z,100.00
2019-02-19T05:26:58.492Z,100.00
2019-02-19T05:29:48.883Z,100.00
2019-02-19T05:32:39.398Z,100.00
2019-02-19T05:35:29.735Z,100.00
2019-02-19T05:38:20.186Z,100.00
2019-02-19T05:41:10.618Z,100.00
2019-02-19T05:44:00.970Z,100.00
2019-02-19T05:46:54.998Z,100.00
2019-02-19T05:49:46.800Z,100.00
2019-02-19T05:52:37.319Z,100.00
2019-02-19T05:55:27.640Z,99.97
2019-02-19T05:58:17.957Z,98.34
2019-02-19T06:01:08.263Z,94.81
2019-02-19T06:03:58.545Z,90.40
2019-02-19T06:06:49.094Z,85.73
2019-02-19T06:09:40.263Z,80.30
2019-02-19T06:12:30.544Z,76.21
2019-02-19T06:15:20.939Z,72.38
2019-02-19T06:18:11.482Z,65.58
2019-02-19T06:21:01.875Z,59.98
2019-02-19T06:23:52.876Z,54.34
2019-02-19T06:26:43.064Z,51.13
2019-02-19T06:29:33.205Z,47.61
2019-02-19T06:32:23.230Z,45.12
2019-02-19T06:35:13.605Z,42.49
2019-02-19T06:38:03.848Z,40.10
2019-02-19T06:40:54.526Z,38.40
2019-02-19T06:43:45.124Z,36.74
2019-02-19T06:46:36.120Z,34.95
2019-02-19T06:49:27.097Z,33.63
2019-02-19T06:52:18.134Z,33.07
2019-02-19T06:55:09.172Z,32.03
2019-02-19T06:58:00.714Z,31.17
2019-02-19T07:00:51.731Z,30.08
2019-02-19T07:03:51.024Z,29.04
2019-02-19T07:06:41.658Z,28.25
2019-02-19T07:09:32.640Z,28.04
2019-02-19T07:12:23.518Z,26.66
2019-02-19T07:15:17.008Z,27.81
2019-02-19T07:18:07.895Z,26.19
2019-02-19T07:20:58.822Z,25.33
2019-02-19T07:23:49.459Z,25.12
2019-02-19T07:26:40.454Z,25.00
2019-02-19T07:29:31.626Z,25.25
2019-02-19T07:32:22.778Z,26.75
2019-02-19T07:35:13.735Z,26.10
2019-02-19T07:38:04.656Z,26.55
2019-02-19T07:40:55.515Z,27.14
2019-02-19T07:43:46.407Z,27.91
2019-02-19T07:46:37.336Z,26.72
2019-02-19T07:49:28.215Z,27.93
2019-02-19T07:52:19.070Z,27.63
2019-02-19T07:55:09.889Z,25.71
2019-02-19T07:58:00.888Z,26.44
2019-02-19T08:00:52.025Z,26.56
2019-02-19T08:03:42.828Z,25.89
2019-02-19T08:06:33.749Z,26.93
2019-02-19T08:09:24.593Z,25.94
2019-02-19T08:12:15.554Z,25.89
2019-02-19T08:15:06.842Z,25.18
2019-02-19T08:18:01.987Z,27.32
2019-02-19T08:20:52.951Z,26.77
2019-02-19T08:23:44.179Z,26.59
2019-02-19T08:26:34.903Z,25.94
2019-02-19T08:29:26.053Z,26.52
2019-02-19T08:32:16.923Z,26.80
2019-02-19T08:35:08.043Z,28.04
2019-02-19T08:37:58.953Z,28.57
2019-02-19T08:40:49.843Z,28.52
2019-02-19T08:43:40.599Z,32.82
2019-02-19T08:46:31.536Z,33.26
2019-02-19T08:49:22.417Z,35.52
2019-02-19T08:52:13.348Z,36.86
2019-02-19T08:55:04.229Z,38.84
2019-02-19T08:57:55.574Z,38.54
2019-02-19T09:00:46.317Z,39.27
2019-02-19T09:03:36.588Z,36.74
2019-02-19T09:06:27.702Z,40.12
2019-02-19T09:09:17.826Z,40.79
2019-02-19T09:12:08.186Z,43.34
2019-02-19T09:14:58.709Z,43.23
2019-02-19T09:17:52.001Z,45.16
2019-02-19T09:20:41.167Z,43.15
2019-02-19T09:23:31.430Z,43.56
2019-02-19T09:26:21.672Z,43.67
2019-02-19T09:29:11.911Z,42.67
2019-02-19T09:32:02.760Z,44.24
2019-02-19T09:34:52.798Z,42.89
2019-02-19T09:37:43.347Z,42.45
2019-02-19T09:40:33.659Z,43.19
2019-02-19T09:43:25.358Z,42.42
2019-02-19T09:46:15.597Z,45.71
2019-02-19T09:49:06.163Z,46.78
2019-02-19T09:51:56.244Z,46.80
2019-02-19T09:54:46.926Z,48.75
2019-02-19T09:57:37.229Z,57.91
2019-02-19T10:00:27.369Z,53.79
2019-02-19T10:03:17.765Z,53.20
2019-02-19T10:06:08.012Z,55.09
2019-02-19T10:08:59.078Z,52.34
2019-02-19T10:11:49.393Z,54.15
2019-02-19T10:14:39.576Z,49.66
2019-02-19T10:17:29.987Z,49.20
2019-02-19T10:20:20.593Z,46.03
2019-02-19T10:23:10.916Z,60.35
2019-02-19T10:26:02.247Z,66.12
2019-02-19T10:28:52.555Z,55.30
2019-02-19T10:31:42.854Z,66.25
2019-02-19T10:34:33.573Z,62.07
2019-02-19T10:37:23.890Z,48.66
2019-02-19T10:40:15.696Z,52.79
2019-02-19T10:43:05.710Z,46.93
2019-02-19T10:45:56.053Z,55.92
2019-02-19T10:48:47.356Z,49.44
2019-02-19T10:51:38.507Z,57.67
2019-02-19T10:54:28.747Z,52.81
2019-02-19T10:57:19.237Z,40.40
2019-02-19T11:00:13.246Z,56.87
2019-02-19T11:03:03.648Z,51.24
2019-02-19T11:05:56.843Z,52.44
2019-02-19T11:08:47.056Z,51.55
2019-02-19T11:11:37.289Z,53.48
2019-02-19T11:14:27.698Z,49.48
2019-02-19T11:17:19.814Z,54.32
2019-02-19T11:20:11.326Z,53.79
2019-02-19T11:23:01.265Z,54.98
2019-02-19T11:25:51.617Z,54.80
2019-02-19T11:28:41.609Z,61.09
2019-02-19T11:31:32.016Z,65.18
2019-02-19T11:34:22.133Z,64.48
2019-02-19T11:37:12.512Z,63.09
2019-02-19T11:40:02.805Z,66.40
2019-02-19T11:42:53.692Z,65.88
2019-02-19T11:45:44.105Z,64.08
2019-02-19T11:48:36.932Z,67.85
2019-02-19T11:51:26.482Z,68.40
2019-02-19T11:54:16.684Z,72.16
2019-02-19T11:57:06.967Z,75.27
2019-02-19T11:59:57.003Z,72.65
2019-02-19T12:02:47.253Z,74.22
2019-02-19T12:05:37.365Z,74.27
2019-02-19T12:08:27.682Z,70.07
2019-02-19T12:11:18.295Z,74.16
2019-02-19T12:14:08.478Z,74.35
2019-02-19T12:16:59.109Z,68.07
2019-02-19T12:19:49.306Z,73.02
2019-02-19T12:22:39.441Z,74.44
2019-02-19T12:25:29.766Z,73.71
2019-02-19T12:28:22.900Z,73.46
2019-02-19T12:31:13.089Z,68.09
2019-02-19T12:34:03.148Z,66.25
2019-02-19T12:36:53.467Z,65.87
2019-02-19T12:39:43.864Z,65.18
2019-02-19T12:42:34.237Z,65.53
2019-02-19T12:45:24.759Z,65.78
2019-02-19T12:48:15.293Z,66.40
2019-02-19T12:51:05.541Z,66.56
2019-02-19T12:53:55.569Z,66.94
2019-02-19T12:56:45.800Z,68.43
2019-02-19T12:59:36.098Z,69.39
2019-02-19T13:02:26.469Z,68.25
2019-02-19T13:05:16.526Z,65.15
2019-02-19T13:08:07.030Z,67.66
2019-02-19T13:10:57.330Z,68.06
2019-02-19T13:13:47.540Z,67.08
2019-02-19T13:16:38.012Z,68.51
2019-02-19T13:19:28.143Z,69.56
2019-02-19T13:22:18.485Z,66.41
2019-02-19T13:25:09.444Z,66.37
2019-02-19T13:27:59.408Z,65.07
2019-02-19T13:30:49.837Z,66.35
2019-02-19T13:33:40.080Z,64.63
2019-02-19T13:36:30.227Z,66.00
2019-02-19T13:39:20.305Z,65.64
2019-02-19T13:42:10.632Z,65.55
2019-02-19T13:45:00.965Z,65.88
2019-02-19T13:47:51.378Z,66.99
2019-02-19T13:50:41.537Z,66.16
2019-02-19T13:53:54.614Z,67.11
2019-02-19T13:56:45.668Z,67.47
2019-02-19T13:59:36.370Z,68.97
2019-02-19T14:02:26.742Z,68.39
2019-02-19T14:05:17.165Z,64.76
2019-02-19T14:08:14.224Z,64.69
2019-02-19T14:10:59.076Z,62.66
2019-02-19T14:14:05.569Z,60.21
2019-02-19T14:17:02.344Z,59.78
2019-02-19T14:20:17.376Z,59.59
2019-02-19T14:23:30.013Z,59.61
2019-02-19T14:26:51.161Z,60.57
2019-02-19T14:30:15.804Z,60.72
2019-02-19T14:33:48.629Z,61.70
2019-02-19T14:36:49.918Z,62.72
2019-02-19T14:40:10.342Z,62.30
2019-02-19T14:43:18.488Z,62.77
2019-02-19T14:46:33.508Z,63.31
2019-02-19T14:49:47.511Z,63.40
2019-02-19T14:52:51.491Z,63.72
2019-02-19T14:56:19.069Z,62.90
2019-02-19T14:59:31.026Z,63.70
2019-02-19T15:02:52.254Z,63.54
2019-02-19T15:06:07.864Z,63.47
2019-02-19T15:09:29.270Z,64.10
2019-02-19T15:12:41.554Z,64.92
2019-02-19T15:16:06.069Z,65.67
2019-02-19T15:19:19.866Z,66.24
2019-02-19T15:22:36.348Z,66.48
2019-02-19T15:25:48.490Z,66.96
2019-02-19T15:29:06.782Z,67.43
2019-02-19T15:32:18.261Z,67.25
2019-02-19T15:35:27.673Z,67.37
2019-02-19T15:38:36.640Z,68.32
2019-02-19T15:41:45.689Z,68.17
2019-02-19T15:44:47.615Z,68.94
2019-02-19T15:47:55.726Z,69.68
2019-02-19T15:51:07.799Z,70.73
2019-02-19T15:54:08.529Z,71.89
2019-02-19T15:57:20.405Z,72.42
2019-02-19T16:00:42.044Z,73.24
2019-02-19T16:03:38.403Z,74.06
2019-02-19T16:06:48.596Z,74.44
2019-02-19T16:09:56.549Z,74.76
2019-02-19T16:13:11.780Z,75.20
2019-02-19T16:16:19.783Z,76.02
2019-02-19T16:19:38.460Z,76.70
2019-02-19T16:22:49.991Z,78.19
2019-02-19T16:26:01.430Z,79.24
2019-02-19T16:29:19.521Z,80.50
2019-02-19T16:32:35.144Z,80.41
2019-02-19T16:35:37.512Z,80.46
2019-02-19T16:38:40.381Z,80.40
2019-02-19T16:41:48.368Z,80.37
2019-02-19T16:45:13.104Z,80.79
2019-02-19T16:48:36.693Z,80.98
2019-02-19T16:51:47.534Z,81.15
2019-02-19T16:54:54.755Z,80.55
2019-02-19T16:58:04.143Z,80.60
2019-02-19T17:01:06.562Z,79.84
2019-02-19T17:04:16.555Z,79.42
2019-02-19T17:07:18.260Z,78.82
2019-02-19T17:10:47.143Z,78.08
2019-02-19T17:14:02.265Z,77.39
2019-02-19T17:17:07.001Z,76.97
2019-02-19T17:20:28.928Z,77.11
2019-02-19T17:23:25.387Z,77.25
2019-02-19T17:26:30.645Z,77.54
2019-02-19T17:29:42.474Z,77.52
2019-02-19T17:32:49.058Z,77.97
2019-02-19T17:35:45.999Z,77.81
2019-02-19T17:38:57.986Z,78.59
2019-02-19T17:41:57.053Z,78.29
2019-02-19T17:44:59.471Z,78.55
2019-02-19T17:48:17.894Z,79.18
2019-02-19T17:51:30.091Z,79.66
2019-02-19T17:54:34.625Z,80.14
2019-02-19T17:57:43.923Z,80.75
2019-02-19T18:00:49.108Z,81.20
2019-02-19T18:04:01.398Z,82.14
2019-02-19T18:07:28.434Z,82.88
2019-02-19T18:11:05.263Z,83.08
2019-02-19T18:14:17.378Z,83.76
2019-02-19T18:17:29.975Z,84.53
2019-02-19T18:20:20.074Z,84.41
2019-02-19T18:23:10.384Z,84.39
2019-02-19T18:26:01.144Z,84.38
2019-02-19T18:28:54.083Z,83.72
2019-02-19T18:31:44.260Z,83.40
2019-02-19T18:34:34.761Z,83.36
2019-02-19T18:37:25.099Z,83.35
2019-02-19T18:40:15.515Z,83.10
2019-02-19T18:43:05.873Z,83.02
2019-02-19T18:45:56.169Z,84.10
2019-02-19T18:48:46.480Z,84.41
2019-02-19T18:51:37.901Z,84.49
2019-02-19T18:54:28.786Z,84.67
2019-02-19T18:57:19.071Z,84.86
2019-02-19T19:00:10.509Z,85.05
2019-02-19T19:03:00.600Z,84.92
2019-02-19T19:05:51.070Z,84.50
2019-02-19T19:08:41.441Z,84.07
2019-02-19T19:11:31.904Z,83.66
2019-02-19T19:14:22.113Z,83.28
2019-02-19T19:17:12.407Z,82.87
2019-02-19T19:20:02.703Z,82.81
2019-02-19T19:22:53.036Z,82.01
2019-02-19T19:25:44.068Z,82.06
2019-02-19T19:28:34.452Z,81.73
2019-02-19T19:31:32.982Z,81.74
2019-02-19T19:34:16.400Z,81.99
2019-02-19T19:37:06.683Z,82.22
2019-02-19T19:39:56.935Z,82.13
2019-02-19T19:42:47.086Z,81.96
2019-02-19T19:45:37.431Z,81.01
2019-02-19T19:48:27.443Z,80.83
2019-02-19T19:51:18.094Z,81.08
2019-02-19T19:54:08.356Z,81.03
2019-02-19T19:56:58.878Z,81.74
2019-02-19T19:59:48.892Z,82.04
2019-02-19T20:02:39.514Z,81.83
2019-02-19T20:05:29.568Z,82.89
2019-02-19T20:08:20.102Z,83.50
2019-02-19T20:11:10.298Z,83.61
2019-02-19T20:14:00.683Z,83.86
2019-02-19T20:16:52.038Z,83.83
2019-02-19T20:19:42.195Z,83.81
2019-02-19T20:22:32.458Z,83.35
2019-02-19T20:25:22.602Z,82.90
2019-02-19T20:28:12.679Z,83.30
2019-02-19T20:31:03.928Z,84.02
2019-02-19T20:33:54.166Z,85.00
2019-02-19T20:36:44.552Z,85.49
2019-02-19T20:39:34.788Z,85.27
2019-02-19T20:42:25.327Z,87.76
2019-02-19T20:45:15.577Z,89.96
2019-02-19T20:48:06.028Z,91.98
2019-02-19T20:50:56.043Z,93.67
2019-02-19T20:53:46.224Z,94.88
2019-02-19T20:56:36.651Z,96.41
2019-02-19T20:59:26.806Z,96.42
2019-02-19T21:02:17.032Z,97.55
2019-02-19T21:05:07.813Z,98.59
2019-02-19T21:07:58.172Z,99.95
2019-02-19T21:10:48.690Z,100.00
2019-02-19T21:13:38.724Z,100.00
2019-02-19T21:16:29.151Z,100.00
2019-02-19T21:19:19.532Z,100.00
2019-02-19T21:22:09.974Z,100.00
2019-02-19T21:25:00.335Z,100.00
2019-02-19T21:27:50.829Z,100.00
2019-02-19T21:30:41.173Z,100.00
2019-02-19T21:33:31.520Z,100.00
2019-02-19T21:36:21.819Z,100.00
2019-02-19T21:39:12.763Z,100.00
2019-02-19T21:42:03.237Z,100.00
2019-02-19T21:44:53.614Z,100.00
2019-02-19T21:47:43.921Z,100.00
2019-02-19T21:50:34.435Z,100.00
2019-02-19T21:53:24.715Z,100.00
2019-02-19T21:56:15.001Z,100.00
2019-02-19T21:59:05.307Z,100.00
2019-02-19T22:01:55.966Z,100.00
2019-02-19T22:04:46.229Z,100.00
2019-02-19T22:07:36.645Z,100.00
2019-02-19T22:10:27.175Z,100.00
2019-02-19T22:13:17.630Z,100.00
2019-02-19T22:16:08.989Z,100.00
2019-02-19T22:18:59.123Z,100.00
2019-02-19T22:22:03.554Z,100.00
2019-02-19T22:24:51.405Z,100.00
2019-02-19T22:27:41.623Z,100.00
2019-02-19T22:30:31.759Z,100.00
2019-02-19T22:33:21.901Z,100.00
2019-02-19T22:36:12.478Z,100.00
2019-02-19T22:39:06.529Z,100.00
2019-02-19T22:41:58.350Z,100.00
2019-02-19T22:44:48.744Z,100.00
2019-02-19T22:47:39.123Z,100.00
2019-02-19T22:50:29.294Z,100.00
2019-02-19T22:53:37.365Z,100.00
2019-02-19T22:56:30.286Z,100.00
2019-02-19T22:59:21.608Z,100.00
2019-02-19T23:02:31.731Z,100.00
2019-02-19T23:05:22.196Z,100.00
2019-02-19T23:08:12.376Z,100.00
2019-02-19T23:11:02.719Z,100.00
2019-02-19T23:13:52.996Z,100.00
2019-02-19T23:16:43.123Z,100.00
2019-02-19T23:19:33.560Z,100.00
2019-02-19T23:22:24.196Z,100.00
2019-02-19T23:25:18.545Z,100.00
2019-02-19T23:28:08.582Z,100.00
2019-02-19T23:30:58.906Z,100.00
2019-02-19T23:33:49.166Z,100.00
2019-02-19T23:36:46.971Z,100.00
2019-02-19T23:39:43.381Z,100.00
2019-02-19T23:42:28.603Z,100.00
2019-02-19T23:45:18.978Z,100.00
2019-02-19T23:48:09.154Z,100.00
2019-02-19T23:50:59.628Z,100.00
2019-02-19T23:53:50.188Z,100.00
2019-02-19T23:56:40.674Z,100.00
2019-02-19T23:59:31.011Z,100.00
